Archival Weather

Abadan

Abadan, Iran (OIAA)

Report from: Monday, July 18, 2022 2:00 PM UTC
Current time: Monday, September 26, 2022 4:08 AM UTC

Current weather
Weather history
Weather forecast

Temperature50.0°C (122.0°F)
Heat index45.9°C (114.7°F)
Dew point6.0°C (42.8°F)
Winds 6 kts (3.1 m/s, 6.9 mph) North (360°)
Clouds Sky clear
Altimeter29.38 in.Hg (995 mB)
Relative humidity8 %
Density altitude4,601 ft. (1,402 m)
Remarks Ceiling and visibility OK
Flight conditions Visual Meteorological Conditions
Raw dataOIAA 181400Z 36006KT CAVOK 50/06 Q0995
An error has occurred. This application may no longer respond until reloaded. Reload 🗙